WetterOnline ( https://www.wetteronline.de )

Wetter aktuell Hohenhameln

Aktuelles Wetter: Braunschweig/Flughafen (88m)

6-stündlich | Neueste Meldungen
Ortszeit Temperatur Wetter
Fr, 28.02. 1:00 1.8° C bedeckt
Do, 27.02. 19:00 2.7° C bedeckt
Do, 27.02. 13:00 4.9° C wolkig
Do, 27.02. 7:00 2.5° C bewölkt
Do, 27.02. 1:00 2.8° C Sprühregen
Mi, 26.02. 19:00 2.2° C bedeckt
Mi, 26.02. 13:00 4.1° C bedeckt
Mi, 26.02. 7:00 0.6° C Regen
Ortszeit Temperatur Wetter
Fr, 28.02. 1:00 1.8° C bedeckt
Fr, 28.02. 0:50 1.8° C bedeckt
Fr, 28.02. 0:40 1.8° C Sprühregen
Fr, 28.02. 0:30 1.9° C bedeckt
Fr, 28.02. 0:20 1.9° C bedeckt
Fr, 28.02. 0:10 2.0° C bedeckt
Fr, 28.02. 0:00 2.0° C bedeckt
Do, 27.02. 23:30 2.1° C bedeckt
Do, 27.02. 23:00 2.1° C bedeckt
Do, 27.02. 22:30 2.6° C bedeckt
Do, 27.02. 22:00 2.5° C bedeckt
Ortszeit Relative Feuchte Sichtweite
Fr, 28.02. 1:00 94% 14 km
Do, 27.02. 19:00 82% 70 km
Do, 27.02. 13:00 67% 45 km
Do, 27.02. 7:00 82% 19 km
Do, 27.02. 1:00 91% 23 km
Mi, 26.02. 19:00 94% 45 km
Mi, 26.02. 13:00 83% 17 km
Mi, 26.02. 7:00 99% 25 km
Ortszeit Relative Feuchte Sichtweite
Fr, 28.02. 1:00 94% 14 km
Fr, 28.02. 0:50 94% -
Fr, 28.02. 0:40 94% -
Fr, 28.02. 0:30 92% 24 km
Fr, 28.02. 0:20 92% -
Fr, 28.02. 0:10 92% -
Fr, 28.02. 0:00 92% 13 km
Do, 27.02. 23:30 90% 20 km
Do, 27.02. 23:00 87% 26 km
Do, 27.02. 22:30 81% 35 km
Do, 27.02. 22:00 79% 40 km
Ortszeit Niederschlagsmenge Niederschlagsart
Fr, 28.02. 1:00 0.1 l/m2 in 6 Std. Regen
Do, 27.02. 19:00 0.2 l/m2 in 12 Std. Schnee, Regen
Do, 27.02. 13:00 0.1 l/m2 in 6 Std. Regen
Do, 27.02. 7:00 2 l/m2 in 12 Std. Regen
Do, 27.02. 1:00 2 l/m2 in 6 Std. Regen
Mi, 26.02. 19:00 5 l/m2 in 12 Std. Schnee, Regen
Mi, 26.02. 13:00 0.3 l/m2 in 6 Std. Regen
Mi, 26.02. 7:00 4 l/m2 in 12 Std. Schnee, Regen
Ortszeit Niederschlagsmenge Niederschlagsart
Fr, 28.02. 1:00 0.1 l/m2 in 1 Std. Regen
Fr, 28.02. 0:50 keine Meldung -
Fr, 28.02. 0:40 keine Meldung -
Fr, 28.02. 0:30 0.0 l/m2 in 1 Std. -
Fr, 28.02. 0:20 keine Meldung -
Fr, 28.02. 0:10 keine Meldung -
Fr, 28.02. 0:00 0.1 l/m2 in 1 Std. Regen
Do, 27.02. 23:30 0.1 l/m2 in 1 Std. Schneeregen
Do, 27.02. 23:00 0.0 l/m2 in 1 Std. -
Do, 27.02. 22:30 0.0 l/m2 in 1 Std. -
Do, 27.02. 22:00 0.0 l/m2 in 1 Std. -
Ortszeit Stärke Spitze Richtung
km/h Bft. km/h Grad Sektor
Fr, 28.02. 1:00 9 2 22 260° W
Do, 27.02. 19:00 0 0 22 - -
Do, 27.02. 13:00 15 3 28 220° SW
Do, 27.02. 7:00 14 3 29 240° SW
Do, 27.02. 1:00 18 3 32 260° W
Mi, 26.02. 19:00 13 3 41 230° SW
Mi, 26.02. 13:00 18 3 32 280° W
Mi, 26.02. 7:00 7 2 32 220° SW
Ortszeit Stärke Spitze Richtung
km/h Bft. km/h Grad Sektor
Fr, 28.02. 1:00 9 2 22 260° W
Fr, 28.02. 0:50 9 2 - 260° W
Fr, 28.02. 0:40 11 2 - 280° W
Fr, 28.02. 0:30 13 3 22 290° W
Fr, 28.02. 0:20 13 3 - 290° W
Fr, 28.02. 0:10 15 3 - 290° W
Fr, 28.02. 0:00 17 3 22 290° W
Do, 27.02. 23:30 13 3 20 300° NW
Do, 27.02. 23:00 13 3 20 280° W
Do, 27.02. 22:30 11 2 17 260° W
Do, 27.02. 22:00 7 2 11 260° W
Ortszeit Untergrenze Bedeckung Gattung
total tief tief mittel hoch
Fr, 28.02. 1:00 210 m 8/8 8/8 - - -
Do, 27.02. 19:00 2100 m 8/8 8/8 - - -
Do, 27.02. 13:00 690 m 7/8 5/8 - - -
Do, 27.02. 7:00 720 m 7/8 7/8 - - -
Do, 27.02. 1:00 270 m 8/8 8/8 - - -
Mi, 26.02. 19:00 750 m 8/8 8/8 - - -
Mi, 26.02. 13:00 450 m 8/8 8/8 - - -
Mi, 26.02. 7:00 90 m 8/8 8/8 - - -
Ortszeit Bedeckungsgrad in Achtel und Wolkenuntergrenze
Fr, 28.02. 1:00 5(210m) 7(690m) 8(1500m)
Fr, 28.02. 0:50 5(210m) 7(690m) 8(1500m)
Fr, 28.02. 0:40 6(210m) 7(540m) 8(930m)
Fr, 28.02. 0:30 6(180m) 8(930m) 8(1500m)
Fr, 28.02. 0:20 6(180m) 8(930m) 8(1500m)
Fr, 28.02. 0:10 7(210m) 8(930m) 8(1500m)
Fr, 28.02. 0:00 5(210m) 8(1500m) 8(2100m)
Do, 27.02. 23:30 7(1050m) 8(1500m) 8(2100m)
Do, 27.02. 23:00 8(1800m) 8(3300m) 8(6300m)
Do, 27.02. 22:30 6(1800m) 8(2700m) 8(6000m)
Do, 27.02. 22:00 5(1800m) 8(2100m) 8(3000m)
Ortszeit Luftdruck NN (hPa) Tendenz (hPa in 3 Std.)
Fr, 28.02. 1:00 1006 + 4,1
Do, 27.02. 19:00 998 + 0,4
Do, 27.02. 13:00 1001 - 2,4
Do, 27.02. 7:00 1003 - 0,1
Do, 27.02. 1:00 1003 + 1,1
Mi, 26.02. 19:00 1000 + 2,9
Mi, 26.02. 13:00 995 + 2,5
Mi, 26.02. 7:00 992 - 0,4
Ortszeit Luftdruck NN (hPa) Tendenz (hPa in 3 Std.)
Fr, 28.02. 1:00 1006 + 4,1
Fr, 28.02. 0:50 1006 keine Meldung
Fr, 28.02. 0:40 1006 keine Meldung
Fr, 28.02. 0:30 1005 + 4,3
Fr, 28.02. 0:20 1005 keine Meldung
Fr, 28.02. 0:10 1005 keine Meldung
Fr, 28.02. 0:00 1004 + 4,3
Do, 27.02. 23:30 1004 + 4,3
Do, 27.02. 23:00 1003 + 4,2
Do, 27.02. 22:30 1002 + 3,9
Do, 27.02. 22:00 1002 + 3,6
Ortszeit Schneehöhe (cm)
Fr, 28.02. 1:00 0
Do, 27.02. 19:00 0
Do, 27.02. 13:00 0
Do, 27.02. 7:00 0
Do, 27.02. 1:00 0
Mi, 26.02. 19:00 0
Mi, 26.02. 13:00 0
Mi, 26.02. 7:00 0
Ortszeit Schneehöhe (cm)
Fr, 28.02. 1:00 0
Fr, 28.02. 0:50 0
Fr, 28.02. 0:40 0
Fr, 28.02. 0:30 0
Fr, 28.02. 0:20 0
Fr, 28.02. 0:10 0
Fr, 28.02. 0:00 0
Do, 27.02. 23:30 0
Do, 27.02. 23:00 0
Do, 27.02. 22:30 0
Do, 27.02. 22:00 0
Link zu dieser Seite / Seite empfehlen

Das Wetter in ...